Time;durP1;ratioP1;P1;durP2;ratioP2;P2;SDS_P1;SDS_P2;PMS_P1;PMS_P2;Temp;Humidity;BMP_temperature;BMP_pressure;BME280_temperature;BME280_humidity;BME280_pressure;Samples;Min_cycle;Max_cycle;Signal;HPM_P1;HPM_P2
2021/12/28 00:00:09;;;;;;;12.00;7.70;;;6.90;99.90;;;;;;5094144;28;20169;-51
2021/12/28 00:02:35;;;;;;;9.30;7.32;;;7.00;99.90;;;;;;5094221;28;20169;-52
2021/12/28 00:05:00;;;;;;;12.60;8.63;;;6.90;99.90;;;;;;5094145;28;20168;-52
2021/12/28 00:07:26;;;;;;;16.85;8.27;;;6.80;99.90;;;;;;5094295;28;20192;-51
2021/12/28 00:09:52;;;;;;;13.68;8.35;;;6.80;99.90;;;;;;5093804;28;20651;-51
2021/12/28 00:12:17;;;;;;;13.48;8.98;;;6.80;99.90;;;;;;5093879;28;20269;-51
2021/12/28 00:15:01;;;;;;;11.02;8.88;;;6.80;99.90;;;;;;5076069;28;20203;-49
2021/12/28 00:20:11;;;;;;;13.80;8.80;;;6.80;99.90;;;;;;5093812;28;20264;-51
2021/12/28 00:22:36;;;;;;;13.32;8.98;;;6.80;99.90;;;;;;5093784;28;20682;-52
2021/12/28 00:25:04;;;;;;;10.60;8.00;;;6.70;99.90;;;;;;5093657;28;20172;-52
2021/12/28 00:27:29;;;;;;;11.60;8.70;;;6.70;99.90;;;;;;5094549;28;20173;-52
2021/12/28 00:29:55;;;;;;;12.65;8.70;;;7.80;99.90;;;;;;5094172;28;20226;-52
2021/12/28 00:32:21;;;;;;;11.68;8.25;;;6.70;99.90;;;;;;5075715;28;20217;-51
2021/12/28 00:34:46;;;;;;;11.70;8.48;;;6.70;99.90;;;;;;5094035;28;20179;-52
2021/12/28 00:37:12;;;;;;;12.63;9.05;;;6.70;99.90;;;;;;5094039;28;20256;-51
2021/12/28 00:39:38;;;;;;;15.35;9.05;;;6.70;99.90;;;;;;5093762;28;20223;-50
2021/12/28 00:42:04;;;;;;;14.35;9.15;;;6.70;99.90;;;;;;5075479;28;20204;-51
2021/12/28 00:44:30;;;;;;;15.75;9.65;;;6.60;99.90;;;;;;5075455;28;20207;-50
2021/12/28 00:46:55;;;;;;;14.25;9.35;;;6.70;99.90;;;;;;5093893;28;20205;-51
2021/12/28 00:49:21;;;;;;;17.48;10.02;;;6.70;99.90;;;;;;5093566;28;20706;-52
2021/12/28 00:51:47;;;;;;;13.75;8.52;;;6.70;99.90;;;;;;5093457;28;20169;-52
2021/12/28 00:54:13;;;;;;;13.40;8.02;;;6.70;99.90;;;;;;5093384;28;20161;-52
2021/12/28 00:56:38;;;;;;;16.67;9.85;;;6.70;99.90;;;;;;5093326;28;20625;-52
2021/12/28 00:59:04;;;;;;;14.88;9.50;;;6.70;99.90;;;;;;5093346;28;20244;-52
2021/12/28 01:01:29;;;;;;;13.25;9.65;;;6.70;99.90;;;;;;5093513;28;20209;-51
2021/12/28 01:03:55;;;;;;;13.02;8.35;;;6.70;99.90;;;;;;5093518;28;20166;-51
2021/12/28 01:06:21;;;;;;;10.15;7.50;;;6.70;99.90;;;;;;5093118;28;20179;-51
2021/12/28 01:08:46;;;;;;;13.13;9.07;;;6.70;99.90;;;;;;5093075;28;20189;-51
2021/12/28 01:11:12;;;;;;;13.35;8.70;;;6.70;99.90;;;;;;5092963;28;20220;-52
2021/12/28 01:13:37;;;;;;;12.73;8.50;;;6.70;99.90;;;;;;5093308;28;20647;-52
2021/12/28 01:16:03;;;;;;;14.43;8.82;;;6.70;99.90;;;;;;5074825;28;20170;-49
2021/12/28 01:18:28;;;;;;;14.73;8.80;;;6.70;99.90;;;;;;5092871;28;20168;-51
2021/12/28 01:20:55;;;;;;;14.57;8.80;;;6.70;99.90;;;;;;5092861;28;20242;-52
2021/12/28 01:23:21;;;;;;;12.52;8.15;;;6.70;99.90;;;;;;5093072;28;20173;-51
2021/12/28 01:25:47;;;;;;;15.05;8.75;;;6.70;99.90;;;;;;5092825;28;20196;-50
2021/12/28 01:28:13;;;;;;;13.40;8.73;;;6.80;99.90;;;;;;5092800;28;20189;-51
2021/12/28 01:30:41;;;;;;;12.45;7.60;;;6.80;99.90;;;;;;5092849;28;20165;-51
2021/12/28 01:33:08;;;;;;;15.82;7.13;;;6.80;99.90;;;;;;5092645;28;20529;-51
2021/12/28 01:35:34;;;;;;;18.85;7.63;;;6.80;99.90;;;;;;5092887;28;20165;-51
2021/12/28 01:38:00;;;;;;;15.55;6.30;;;6.80;99.90;;;;;;5092977;28;20237;-51
2021/12/28 01:40:31;;;;;;;20.48;6.30;;;6.80;99.90;;;;;;5092823;28;20172;-51
2021/12/28 01:43:03;;;;;;;17.70;7.18;;;6.90;99.90;;;;;;5092557;28;20174;-50
2021/12/28 01:45:57;;;;;;;18.30;6.57;;;6.90;99.90;;;;;;5092818;28;20730;-51
2021/12/28 01:48:26;;;;;;;11.18;6.47;;;6.90;99.90;;;;;;5085060;28;20185;-50
2021/12/28 01:50:55;;;;;;;16.20;6.55;;;6.90;99.90;;;;;;5092368;28;20197;-51
2021/12/28 01:53:21;;;;;;;18.27;6.55;;;7.00;99.90;;;;;;5092374;28;20165;-51
2021/12/28 01:55:50;;;;;;;16.33;7.15;;;7.00;99.90;;;;;;5092409;28;20157;-50
2021/12/28 01:58:17;;;;;;;19.02;6.78;;;6.90;99.90;;;;;;5092289;28;20162;-50
2021/12/28 02:00:44;;;;;;;17.23;6.25;;;7.00;99.90;;;;;;5092201;28;20193;-51
2021/12/28 02:03:12;;;;;;;20.17;6.78;;;7.00;99.90;;;;;;5092229;28;20637;-52
2021/12/28 02:05:39;;;;;;;15.48;6.82;;;7.00;99.90;;;;;;5092398;28;20605;-51
2021/12/28 02:08:06;;;;;;;20.08;6.85;;;7.00;99.90;;;;;;5092235;28;20165;-51
2021/12/28 02:10:33;;;;;;;18.30;5.72;;;7.00;99.90;;;;;;5092181;28;20587;-51
2021/12/28 02:12:58;;;;;;;24.30;5.90;;;7.10;99.90;;;;;;5092716;28;20196;-52
2021/12/28 02:15:24;;;;;;;21.85;6.13;;;7.10;99.90;;;;;;5092369;28;20601;-51
2021/12/28 02:17:50;;;;;;;28.48;6.90;;;7.10;99.90;;;;;;5092058;28;20175;-52
2021/12/28 02:20:19;;;;;;;23.15;6.18;;;7.10;99.90;;;;;;5091993;28;20172;-51
2021/12/28 02:22:44;;;;;;;18.75;5.07;;;7.20;99.90;;;;;;5092076;28;20165;-51
2021/12/28 02:25:12;;;;;;;28.33;6.43;;;7.20;99.90;;;;;;5092045;28;20161;-51
2021/12/28 02:27:38;;;;;;;16.88;5.68;;;7.20;99.90;;;;;;5091919;28;20177;-51
2021/12/28 02:30:06;;;;;;;15.13;4.32;;;7.10;99.90;;;;;;5091976;28;20168;-51
2021/12/28 02:32:33;;;;;;;16.25;6.00;;;7.20;99.90;;;;;;5091853;28;20180;-51
2021/12/28 02:34:58;;;;;;;15.70;4.93;;;7.20;99.90;;;;;;5092517;28;20266;-51
2021/12/28 02:37:25;;;;;;;17.83;5.32;;;7.20;99.90;;;;;;5091925;28;20166;-52
2021/12/28 02:39:51;;;;;;;12.82;4.63;;;7.20;99.90;;;;;;5091906;28;20165;-51
2021/12/28 02:42:20;;;;;;;14.10;4.88;;;7.20;99.90;;;;;;5091770;28;20622;-52
2021/12/28 02:44:54;;;;;;;19.08;5.97;;;7.20;99.90;;;;;;5091805;28;20157;-51
2021/12/28 02:47:20;;;;;;;19.95;7.43;;;7.20;99.90;;;;;;5091926;28;20161;-51
2021/12/28 02:49:45;;;;;;;20.48;5.55;;;7.20;99.90;;;;;;5091782;28;20584;-51
2021/12/28 02:52:11;;;;;;;16.05;5.75;;;7.20;99.90;;;;;;5091813;28;20165;-52
2021/12/28 02:54:38;;;;;;;17.48;5.10;;;7.20;99.90;;;;;;5091754;28;20211;-51
2021/12/28 02:57:05;;;;;;;18.80;5.38;;;7.20;99.90;;;;;;5094923;28;20245;-51
2021/12/28 02:59:31;;;;;;;26.17;6.72;;;7.30;99.90;;;;;;5095643;28;20687;-51
2021/12/28 03:01:56;;;;;;;22.85;5.75;;;7.40;99.90;;;;;;5095926;28;20201;-51
2021/12/28 03:04:24;;;;;;;16.55;6.88;;;7.30;99.90;;;;;;5095545;28;20165;-51
2021/12/28 03:06:50;;;;;;;19.20;6.63;;;7.40;99.90;;;;;;5095714;28;20260;-50
2021/12/28 03:09:18;;;;;;;14.57;5.57;;;7.40;99.90;;;;;;5095519;28;20221;-51
2021/12/28 03:11:44;;;;;;;20.65;6.40;;;7.40;99.90;;;;;;5095205;28;20723;-51
2021/12/28 03:14:10;;;;;;;20.80;6.95;;;7.40;99.90;;;;;;5095406;28;20166;-51
2021/12/28 03:16:35;;;;;;;19.25;6.68;;;7.40;99.90;;;;;;5095363;28;20171;-51
2021/12/28 03:19:01;;;;;;;26.88;6.28;;;7.40;99.90;;;;;;5077386;28;20210;-51
2021/12/28 03:21:27;;;;;;;20.05;5.90;;;7.40;99.90;;;;;;5095750;28;20213;-51
2021/12/28 03:23:54;;;;;;;18.45;6.63;;;7.30;99.90;;;;;;5095187;28;20168;-51
2021/12/28 03:26:20;;;;;;;22.75;7.63;;;7.40;99.90;;;;;;5095410;28;20173;-52
2021/12/28 03:28:47;;;;;;;17.33;7.18;;;7.40;99.90;;;;;;5095111;28;20188;-51
2021/12/28 03:31:15;;;;;;;24.95;6.80;;;7.40;99.90;;;;;;5094997;28;20168;-50
2021/12/28 03:33:42;;;;;;;17.38;6.20;;;7.40;99.90;;;;;;5095129;28;20248;-51
2021/12/28 03:36:09;;;;;;;23.55;6.60;;;7.40;99.90;;;;;;5094961;28;20613;-51
2021/12/28 03:38:37;;;;;;;16.50;6.38;;;7.40;99.90;;;;;;5094900;28;20210;-52
2021/12/28 03:41:07;;;;;;;26.88;7.30;;;7.40;99.90;;;;;;5094796;28;20229;-51
2021/12/28 03:43:36;;;;;;;19.25;6.28;;;7.40;99.90;;;;;;5094690;28;20640;-51
2021/12/28 03:46:03;;;;;;;19.65;5.90;;;7.40;99.90;;;;;;5094844;28;20181;-51
2021/12/28 03:48:28;;;;;;;22.30;6.63;;;7.40;99.90;;;;;;5095020;28;20193;-50
2021/12/28 03:50:54;;;;;;;24.70;7.70;;;7.40;99.90;;;;;;5094699;28;20621;-50
2021/12/28 03:53:20;;;;;;;23.05;6.05;;;7.40;99.90;;;;;;5094625;28;20621;-51
2021/12/28 03:55:45;;;;;;;19.85;5.70;;;7.50;99.90;;;;;;5076401;28;20625;-50
2021/12/28 03:58:11;;;;;;;23.73;5.72;;;7.40;99.90;;;;;;5094549;28;20189;-50
2021/12/28 04:00:47;;;;;;;30.52;7.10;;;7.50;99.90;;;;;;5094496;28;20189;-51
2021/12/28 04:03:14;;;;;;;26.00;6.75;;;7.50;99.90;;;;;;5094675;28;20177;-50
2021/12/28 04:05:42;;;;;;;18.20;6.93;;;7.50;99.90;;;;;;5094433;28;20161;-51
2021/12/28 04:08:07;;;;;;;21.10;6.72;;;7.50;99.90;;;;;;5093932;28;20161;-50
2021/12/28 04:10:48;;;;;;;22.92;6.85;;;7.50;99.90;;;;;;5094150;28;20685;-50
2021/12/28 04:13:15;;;;;;;18.92;6.00;;;7.50;99.90;;;;;;5094395;28;20258;-50
2021/12/28 04:15:40;;;;;;;21.15;6.90;;;7.60;99.90;;;;;;5094160;28;20172;-51
2021/12/28 04:18:06;;;;;;;25.92;5.65;;;7.60;99.90;;;;;;5094174;28;20170;-50
2021/12/28 04:20:32;;;;;;;21.27;6.35;;;7.60;99.90;;;;;;5094002;28;20169;-50
2021/12/28 04:22:57;;;;;;;19.75;4.95;;;7.60;99.90;;;;;;5094401;28;20256;-51
2021/12/28 04:25:23;;;;;;;30.05;6.43;;;7.70;99.90;;;;;;5093942;28;20169;-50
2021/12/28 04:27:48;;;;;;;17.83;5.25;;;7.70;99.90;;;;;;5093914;28;20178;-50
2021/12/28 04:30:15;;;;;;;20.67;5.22;;;7.70;99.90;;;;;;5093884;28;20173;-50
2021/12/28 04:32:42;;;;;;;21.08;5.40;;;7.80;99.90;;;;;;5094141;28;20517;-51
2021/12/28 04:35:08;;;;;;;25.00;5.90;;;7.80;99.90;;;;;;5093831;28;20637;-50
2021/12/28 04:37:34;;;;;;;24.63;5.10;;;7.80;99.90;;;;;;5093737;28;20252;-51
2021/12/28 04:40:00;;;;;;;20.83;5.95;;;7.90;99.90;;;;;;5093724;28;20197;-50
2021/12/28 04:42:28;;;;;;;22.27;5.57;;;7.80;99.90;;;;;;5093923;28;20255;-49
2021/12/28 04:44:54;;;;;;;27.27;6.50;;;7.90;99.90;;;;;;5093547;28;20157;-50
2021/12/28 04:47:19;;;;;;;24.50;6.85;;;7.90;99.90;;;;;;5093790;28;20257;-51
2021/12/28 04:49:46;;;;;;;19.30;5.30;;;7.80;99.90;;;;;;5093466;28;20176;-50
2021/12/28 04:52:13;;;;;;;25.75;6.43;;;7.80;99.90;;;;;;5093589;28;20181;-52
2021/12/28 04:54:39;;;;;;;20.17;4.45;;;7.80;99.90;;;;;;5093447;28;20161;-50
2021/12/28 04:57:05;;;;;;;28.55;5.13;;;7.90;99.90;;;;;;5093312;28;20165;-50
2021/12/28 04:59:32;;;;;;;18.83;5.72;;;7.80;99.90;;;;;;5093253;28;20157;-50
2021/12/28 05:01:57;;;;;;;20.35;5.40;;;7.90;99.90;;;;;;5093524;28;20213;-51
2021/12/28 05:04:23;;;;;;;25.95;5.03;;;7.80;99.90;;;;;;5093233;28;20165;-51
2021/12/28 05:06:51;;;;;;;19.85;4.35;;;7.90;99.90;;;;;;5093160;28;20177;-51
2021/12/28 05:09:18;;;;;;;25.30;5.35;;;7.90;99.90;;;;;;5093160;28;20161;-51
2021/12/28 05:11:44;;;;;;;27.77;4.88;;;7.90;99.90;;;;;;5092934;28;20224;-51
2021/12/28 05:14:10;;;;;;;23.85;4.88;;;7.90;99.90;;;;;;5093361;28;20165;-51
2021/12/28 05:16:35;;;;;;;29.85;5.00;;;7.90;99.90;;;;;;5093278;28;20196;-51
2021/12/28 05:19:04;;;;;;;23.35;5.53;;;7.90;99.90;;;;;;5074117;28;20622;-51
2021/12/28 05:21:30;;;;;;;25.83;5.10;;;7.90;99.90;;;;;;5093076;28;20244;-50
2021/12/28 05:23:56;;;;;;;25.45;5.38;;;7.90;99.90;;;;;;5093135;28;20189;-51
2021/12/28 05:26:22;;;;;;;23.40;5.05;;;7.90;99.90;;;;;;5092844;28;20161;-51
2021/12/28 05:28:48;;;;;;;21.75;5.38;;;8.00;99.90;;;;;;5092735;28;20172;-51
2021/12/28 05:31:13;;;;;;;26.38;5.70;;;7.90;99.90;;;;;;5093054;28;20165;-51
2021/12/28 05:33:39;;;;;;;26.80;5.45;;;8.00;99.90;;;;;;5092815;28;20169;-51
2021/12/28 05:36:05;;;;;;;17.27;5.13;;;8.00;99.90;;;;;;5092712;28;20192;-50
2021/12/28 05:38:31;;;;;;;31.52;5.93;;;8.00;99.90;;;;;;5092883;28;20169;-51
2021/12/28 05:40:57;;;;;;;24.17;4.63;;;8.00;99.90;;;;;;5092926;28;20597;-50
2021/12/28 05:43:22;;;;;;;24.42;4.88;;;8.00;99.90;;;;;;5092588;28;20224;-49
2021/12/28 05:45:48;;;;;;;20.40;4.75;;;8.00;99.90;;;;;;5092524;28;20165;-50
2021/12/28 05:48:13;;;;;;;23.13;5.68;;;8.00;99.90;;;;;;5092741;28;20640;-51
2021/12/28 05:50:39;;;;;;;21.23;4.78;;;8.00;99.90;;;;;;5074343;28;20617;-51
2021/12/28 05:53:05;;;;;;;22.58;6.05;;;8.00;99.90;;;;;;5092461;28;20534;-51
2021/12/28 05:55:31;;;;;;;24.75;6.32;;;8.10;99.90;;;;;;5092423;28;20158;-51
2021/12/28 05:57:57;;;;;;;25.88;5.90;;;8.10;99.90;;;;;;5092671;28;20686;-51
2021/12/28 06:00:23;;;;;;;29.83;6.68;;;8.10;99.90;;;;;;5092287;28;20166;-51
2021/12/28 06:02:49;;;;;;;20.42;6.10;;;8.10;99.90;;;;;;5092415;28;20174;-51
2021/12/28 06:05:14;;;;;;;24.02;7.72;;;8.10;99.90;;;;;;5092258;28;20225;-52
2021/12/28 06:07:40;;;;;;;30.73;6.68;;;8.10;99.90;;;;;;5092236;28;20536;-52
2021/12/28 06:10:07;;;;;;;28.80;7.80;;;8.20;99.90;;;;;;5092070;28;20635;-50
2021/12/28 06:12:33;;;;;;;25.75;7.65;;;8.20;99.90;;;;;;5092322;28;20185;-50
2021/12/28 06:14:58;;;;;;;27.13;6.97;;;8.10;99.90;;;;;;5092565;28;20161;-49
2021/12/28 06:17:24;;;;;;;20.17;7.63;;;8.10;99.90;;;;;;5092364;28;20211;-51
2021/12/28 06:19:50;;;;;;;17.33;7.28;;;8.10;99.90;;;;;;5092006;28;20169;-50
2021/12/28 06:22:16;;;;;;;23.60;7.60;;;8.10;99.90;;;;;;5092033;28;20208;-51
2021/12/28 06:24:41;;;;;;;23.50;8.00;;;8.10;99.90;;;;;;5092029;28;20628;-50
2021/12/28 06:27:07;;;;;;;17.80;7.32;;;8.20;99.90;;;;;;5092278;28;20250;-50
2021/12/28 06:29:33;;;;;;;30.70;8.95;;;8.20;99.90;;;;;;5092697;28;20644;-50
2021/12/28 06:31:58;;;;;;;21.23;9.07;;;8.20;99.90;;;;;;5096617;28;20529;-49
2021/12/28 06:34:24;;;;;;;30.65;9.00;;;8.20;99.90;;;;;;5096216;28;20196;-50
2021/12/28 06:36:49;;;;;;;28.23;9.40;;;8.20;99.90;;;;;;5096114;28;20214;-50
2021/12/28 06:39:15;;;;;;;22.77;8.13;;;8.20;99.90;;;;;;5096027;28;20222;-49
2021/12/28 06:41:41;;;;;;;19.70;7.53;;;8.20;99.90;;;;;;5096227;28;20295;-50
2021/12/28 06:44:09;;;;;;;29.27;8.50;;;8.20;99.90;;;;;;5095935;28;20252;-51
2021/12/28 06:46:38;;;;;;;20.45;9.38;;;8.30;99.90;;;;;;5096124;28;20182;-51
2021/12/28 06:49:04;;;;;;;25.38;8.80;;;8.20;99.90;;;;;;5077842;28;20539;-51
2021/12/28 06:51:30;;;;;;;27.30;8.05;;;8.30;99.90;;;;;;5096064;28;20227;-49
2021/12/28 06:53:56;;;;;;;23.40;9.25;;;8.20;99.90;;;;;;5096047;28;20587;-52
2021/12/28 06:56:21;;;;;;;23.15;8.30;;;8.30;99.90;;;;;;5095996;28;20161;-50
2021/12/28 06:58:47;;;;;;;19.85;8.65;;;8.30;99.90;;;;;;5095716;28;20204;-52
2021/12/28 07:01:12;;;;;;;25.17;8.70;;;8.30;99.90;;;;;;5095504;28;20231;-52
2021/12/28 07:03:38;;;;;;;24.60;8.27;;;8.30;99.90;;;;;;5095611;28;20189;-52
2021/12/28 07:06:04;;;;;;;21.90;9.27;;;8.30;99.90;;;;;;5095572;28;20176;-51
2021/12/28 07:08:29;;;;;;;28.15;9.13;;;8.30;99.90;;;;;;5095452;28;20165;-51
2021/12/28 07:10:55;;;;;;;22.20;8.43;;;8.30;99.90;;;;;;5095715;28;20684;-51
2021/12/28 07:13:21;;;;;;;19.88;8.23;;;8.30;99.90;;;;;;5095660;28;20256;-51
2021/12/28 07:15:47;;;;;;;19.65;8.13;;;8.30;99.90;;;;;;5095318;28;20199;-53
2021/12/28 07:18:13;;;;;;;20.58;8.13;;;8.30;99.90;;;;;;5095275;28;20201;-50
2021/12/28 07:20:38;;;;;;;22.88;9.10;;;8.30;99.90;;;;;;5095181;28;20526;-50
2021/12/28 07:23:04;;;;;;;22.00;8.05;;;8.30;99.90;;;;;;5095186;28;20173;-51
2021/12/28 07:25:30;;;;;;;29.90;10.75;;;8.30;99.90;;;;;;5094890;28;20173;-49
2021/12/28 07:27:56;;;;;;;24.50;9.63;;;8.30;99.90;;;;;;5077271;28;20637;-50
2021/12/28 07:30:22;;;;;;;20.98;9.50;;;8.30;99.90;;;;;;5095126;28;20215;-52
2021/12/28 07:32:47;;;;;;;22.98;9.77;;;8.20;99.90;;;;;;5095050;28;20170;-52
2021/12/28 07:35:13;;;;;;;15.65;8.20;;;8.20;99.90;;;;;;5094519;28;20265;-51
2021/12/28 07:37:39;;;;;;;15.93;7.38;;;8.10;99.90;;;;;;5095147;28;20524;-49
2021/12/28 07:40:07;;;;;;;18.58;7.03;;;8.20;99.90;;;;;;5095109;28;20174;-50
2021/12/28 07:42:34;;;;;;;23.23;8.18;;;8.10;99.90;;;;;;5094000;28;20206;-50
2021/12/28 07:45:00;;;;;;;17.73;7.38;;;8.10;99.90;;;;;;5094703;28;20624;-50
2021/12/28 07:47:25;;;;;;;21.95;7.90;;;8.10;99.90;;;;;;5094829;28;20179;-50
2021/12/28 07:49:51;;;;;;;17.23;7.32;;;8.10;99.90;;;;;;5094316;28;20161;-50
2021/12/28 07:52:17;;;;;;;22.55;7.97;;;8.10;99.90;;;;;;5094598;28;20169;-51
2021/12/28 07:54:42;;;;;;;24.17;7.32;;;8.10;99.90;;;;;;5094601;28;20162;-52
2021/12/28 07:57:08;;;;;;;23.95;7.85;;;8.20;99.90;;;;;;5094251;28;20520;-51
2021/12/28 07:59:33;;;;;;;16.48;7.53;;;8.20;99.90;;;;;;5094703;28;20174;-52
2021/12/28 08:01:59;;;;;;;22.92;8.07;;;8.20;99.90;;;;;;5094656;28;20326;-50
2021/12/28 08:04:27;;;;;;;23.15;7.40;;;8.30;99.90;;;;;;5094723;28;20169;-50
2021/12/28 08:06:56;;;;;;;20.73;7.80;;;8.30;99.90;;;;;;5094461;28;20169;-51
2021/12/28 08:09:21;;;;;;;23.40;8.07;;;8.20;99.90;;;;;;5094154;28;20181;-50
2021/12/28 08:11:47;;;;;;;16.13;8.32;;;8.30;99.90;;;;;;5072514;28;20303;-50
2021/12/28 08:14:13;;;;;;;15.23;7.78;;;8.30;99.90;;;;;;5073721;28;20166;-51
2021/12/28 08:16:38;;;;;;;22.30;9.30;;;8.30;99.90;;;;;;5073990;28;20178;-50
2021/12/28 08:19:06;;;;;;;23.70;10.55;;;8.30;99.90;;;;;;5106181;28;20639;-50
2021/12/28 08:21:33;;;;;;;35.80;13.48;;;8.30;99.90;;;;;;5073561;28;20259;-50
2021/12/28 08:23:58;;;;;;;20.67;8.45;;;8.30;99.90;;;;;;5074201;28;20170;-51
2021/12/28 08:26:24;;;;;;;25.23;10.35;;;8.30;99.90;;;;;;5073669;28;20170;-50
2021/12/28 08:28:50;;;;;;;12.40;5.80;;;8.40;99.90;;;;;;5073500;28;20644;-50
2021/12/28 08:31:15;;;;;;;24.95;10.70;;;8.30;99.90;;;;;;5073680;28;20640;-51
2021/12/28 08:33:41;;;;;;;12.60;5.15;;;8.40;99.90;;;;;;5073641;28;20167;-50
2021/12/28 08:36:06;;;;;;;14.27;5.70;;;8.40;99.90;;;;;;5073432;28;20177;-50
2021/12/28 08:38:32;;;;;;;8.00;4.05;;;8.50;99.90;;;;;;5073515;28;20165;-50
2021/12/28 08:40:59;;;;;;;8.80;3.35;;;8.50;99.90;;;;;;5073540;28;20657;-51
2021/12/28 08:43:25;;;;;;;11.30;4.20;;;8.50;99.90;;;;;;5073906;28;20252;-51
2021/12/28 08:45:51;;;;;;;9.75;3.08;;;8.60;99.90;;;;;;5073349;28;20268;-50
2021/12/28 08:48:16;;;;;;;12.45;4.70;;;8.60;99.90;;;;;;5073290;28;20170;-51
2021/12/28 08:50:42;;;;;;;6.45;2.40;;;8.60;99.90;;;;;;5073266;28;20172;-50
2021/12/28 08:53:10;;;;;;;5.15;1.88;;;8.70;99.90;;;;;;5072428;28;20184;-51
2021/12/28 08:55:36;;;;;;;2.05;1.50;;;8.70;99.90;;;;;;5073306;28;20563;-51
2021/12/28 08:58:02;;;;;;;6.45;2.25;;;8.70;99.90;;;;;;5073114;28;20173;-51
2021/12/28 09:00:31;;;;;;;6.93;2.28;;;8.80;99.90;;;;;;5072635;28;20687;-50
2021/12/28 09:02:57;;;;;;;4.78;1.95;;;8.80;99.90;;;;;;5073441;28;20213;-51
2021/12/28 09:05:24;;;;;;;3.80;1.60;;;8.90;99.90;;;;;;5073127;28;20685;-51
2021/12/28 09:07:51;;;;;;;4.68;1.63;;;8.90;99.90;;;;;;5072973;28;20177;-51
2021/12/28 09:10:17;;;;;;;1.40;1.23;;;9.00;99.90;;;;;;5074616;28;20194;-51
2021/12/28 09:12:42;;;;;;;2.05;1.58;;;9.00;99.90;;;;;;5074548;28;20750;-51
2021/12/28 09:15:10;;;;;;;5.57;1.50;;;9.10;99.90;;;;;;5093018;28;20225;-50
2021/12/28 09:17:37;;;;;;;3.25;1.15;;;9.10;99.90;;;;;;5092952;28;20252;-51
2021/12/28 09:20:10;;;;;;;2.85;1.10;;;9.10;99.90;;;;;;5092665;28;20200;-51
2021/12/28 09:22:36;;;;;;;1.67;0.82;;;9.20;99.90;;;;;;5092538;28;20201;-51
2021/12/28 09:25:02;;;;;;;2.15;1.00;;;9.30;99.90;;;;;;5093016;28;20166;-52
2021/12/28 09:27:27;;;;;;;1.75;1.20;;;9.30;99.90;;;;;;5093335;28;20243;-51
2021/12/28 09:29:53;;;;;;;2.03;1.23;;;9.40;99.90;;;;;;5092828;28;20620;-51
2021/12/28 09:32:20;;;;;;;0.90;0.90;;;9.40;99.90;;;;;;5092746;28;20244;-51
2021/12/28 09:34:49;;;;;;;0.85;0.85;;;9.40;99.90;;;;;;5092692;28;20158;-52
2021/12/28 09:37:15;;;;;;;1.42;1.20;;;9.40;99.90;;;;;;5092457;28;20177;-51
2021/12/28 09:39:40;;;;;;;1.70;1.10;;;9.40;99.90;;;;;;5092479;28;20165;-52
2021/12/28 09:42:07;;;;;;;3.25;1.42;;;9.40;99.90;;;;;;5092468;28;20209;-52
2021/12/28 09:44:33;;;;;;;1.15;0.90;;;9.40;99.90;;;;;;5074426;28;20180;-51
2021/12/28 09:47:00;;;;;;;1.20;1.10;;;9.40;99.90;;;;;;5092811;28;20204;-52
2021/12/28 09:49:28;;;;;;;2.25;1.60;;;9.50;99.90;;;;;;5092837;28;20177;-54
2021/12/28 09:51:54;;;;;;;1.20;0.98;;;9.50;99.90;;;;;;5092044;28;20556;-48
2021/12/28 09:54:23;;;;;;;1.98;1.10;;;9.50;99.90;;;;;;5092239;28;20536;-53
2021/12/28 09:56:49;;;;;;;1.42;0.90;;;9.50;99.90;;;;;;5092166;28;20260;-52
2021/12/28 09:59:14;;;;;;;1.55;1.17;;;9.50;99.90;;;;;;5092080;28;20251;-48
2021/12/28 10:01:40;;;;;;;1.80;0.98;;;9.60;99.90;;;;;;5092295;28;20200;-50
2021/12/28 10:04:06;;;;;;;1.25;1.15;;;9.60;99.90;;;;;;5102737;28;20180;-49
2021/12/28 10:06:32;;;;;;;2.25;1.35;;;9.60;99.90;;;;;;5116857;27;20751;-48
2021/12/28 10:09:07;;;;;;;2.30;1.30;;;9.50;99.90;;;;;;5132075;27;20164;-56
2021/12/28 10:11:35;;;;;;;1.83;1.60;;;9.60;99.90;;;;;;5131797;27;20215;-53
2021/12/28 10:14:17;;;;;;;5.88;2.45;;;9.50;99.90;;;;;;5132107;27;20483;-54
2021/12/28 10:16:58;;;;;;;1.42;1.30;;;9.50;99.90;;;;;;5131822;27;20243;-51
2021/12/28 10:19:30;;;;;;;4.65;2.95;;;9.50;99.90;;;;;;5132076;28;20259;-51
2021/12/28 10:21:55;;;;;;;1.77;1.30;;;9.50;99.90;;;;;;5132213;28;20267;-52
2021/12/28 10:24:37;;;;;;;5.15;2.63;;;9.50;99.90;;;;;;5131673;28;20172;-49
2021/12/28 10:27:10;;;;;;;1.55;1.45;;;9.60;99.90;;;;;;5131893;28;20168;-50
2021/12/28 10:29:36;;;;;;;1.27;1.00;;;9.60;99.90;;;;;;5131532;28;20250;-55
2021/12/28 10:32:19;;;;;;;2.70;1.30;;;9.70;99.90;;;;;;5131673;28;20254;-49
2021/12/28 10:34:58;;;;;;;1.42;1.10;;;9.80;99.90;;;;;;5131674;28;20171;-52
2021/12/28 10:37:31;;;;;;;2.15;1.08;;;9.80;99.90;;;;;;5131524;28;20183;-53
2021/12/28 10:39:58;;;;;;;2.38;2.00;;;9.90;99.90;;;;;;5131982;28;20535;-51
2021/12/28 10:42:46;;;;;;;1.83;1.20;;;9.90;99.90;;;;;;5131379;28;20264;-51
2021/12/28 10:45:19;;;;;;;1.15;1.00;;;9.90;99.90;;;;;;5131380;28;20176;-55
2021/12/28 10:47:46;;;;;;;2.35;1.50;;;9.90;99.90;;;;;;5131601;28;20638;-58
2021/12/28 10:50:40;;;;;;;4.20;1.00;;;10.00;99.90;;;;;;5131535;28;20156;-57
2021/12/28 10:53:08;;;;;;;1.08;1.00;;;9.90;99.90;;;;;;5131541;28;20258;-54
2021/12/28 10:55:35;;;;;;;2.80;1.70;;;10.00;99.90;;;;;;5131719;28;20172;-56
2021/12/28 10:58:02;;;;;;;3.22;1.73;;;10.00;99.90;;;;;;5131429;28;20623;-56
2021/12/28 11:00:35;;;;;;;1.60;1.40;;;10.10;99.90;;;;;;5131871;28;20172;-53
2021/12/28 11:03:16;;;;;;;1.48;1.10;;;10.10;99.90;;;;;;5113064;28;20191;-54
2021/12/28 11:05:45;;;;;;;2.30;2.10;;;10.10;99.90;;;;;;5131463;28;20174;-56
2021/12/28 11:08:12;;;;;;;2.50;2.10;;;10.10;99.90;;;;;;5131375;28;20243;-52
2021/12/28 11:10:54;;;;;;;1.73;1.40;;;10.10;99.90;;;;;;5131163;28;20204;-57
2021/12/28 11:13:27;;;;;;;2.03;1.63;;;10.20;99.90;;;;;;5131362;28;20172;-59
2021/12/28 11:15:53;;;;;;;3.15;2.45;;;10.20;99.90;;;;;;5131298;27;20283;-59
2021/12/28 11:18:30;;;;;;;4.55;3.28;;;10.30;99.90;;;;;;5116359;27;20168;-54
2021/12/28 11:20:58;;;;;;;4.00;3.00;;;10.40;99.90;;;;;;5116680;27;20278;-54
2021/12/28 11:23:27;;;;;;;5.63;3.35;;;10.40;99.90;;;;;;5134846;27;20656;-58
2021/12/28 11:26:15;;;;;;;4.65;3.35;;;10.50;99.90;;;;;;5134821;27;20168;-57
2021/12/28 11:28:50;;;;;;;6.35;3.80;;;10.50;99.90;;;;;;5135223;27;20168;-52
2021/12/28 11:31:19;;;;;;;5.63;3.67;;;10.50;99.90;;;;;;5135054;27;20168;-59
2021/12/28 11:33:47;;;;;;;10.88;5.10;;;10.60;99.90;;;;;;5135066;27;20176;-59
2021/12/28 11:36:13;;;;;;;6.82;3.67;;;10.70;99.90;;;;;;5134850;27;20168;-60
2021/12/28 11:38:42;;;;;;;5.07;2.13;;;10.70;99.90;;;;;;5134982;27;20194;-59
2021/12/28 11:41:08;;;;;;;3.50;1.00;;;10.70;99.90;;;;;;5134787;27;20199;-59
2021/12/28 11:43:36;;;;;;;11.23;6.45;;;10.70;99.90;;;;;;5134637;27;20168;-57
2021/12/28 11:46:03;;;;;;;1.05;0.70;;;10.70;99.90;;;;;;5134465;27;20175;-59
2021/12/28 11:48:30;;;;;;;1.35;0.75;;;10.60;99.90;;;;;;5134899;27;20175;-59
2021/12/28 11:50:55;;;;;;;1.83;0.98;;;10.60;99.90;;;;;;5124896;27;20572;-60
2021/12/28 11:53:22;;;;;;;1.50;1.17;;;10.60;99.90;;;;;;5113904;28;20160;-60
2021/12/28 11:55:48;;;;;;;1.75;0.90;;;10.50;99.90;;;;;;5113848;28;20160;-60
2021/12/28 11:58:14;;;;;;;1.15;1.08;;;10.50;99.90;;;;;;5113603;28;20211;-59
2021/12/28 12:00:43;;;;;;;1.90;0.98;;;10.50;99.90;;;;;;5113721;28;20200;-60
2021/12/28 12:03:33;;;;;;;1.88;1.00;;;10.40;99.90;;;;;;5113597;28;20173;-60
2021/12/28 12:05:59;;;;;;;2.00;1.20;;;10.50;99.90;;;;;;5113921;28;20161;-57
2021/12/28 12:08:25;;;;;;;3.45;1.95;;;10.50;99.90;;;;;;5113810;28;20174;-57
2021/12/28 12:11:01;;;;;;;1.90;1.50;;;10.50;99.90;;;;;;5113353;28;20204;-60
2021/12/28 12:13:29;;;;;;;5.15;2.10;;;10.50;99.90;;;;;;5114031;28;20517;-59
2021/12/28 12:16:01;;;;;;;4.25;3.08;;;10.50;99.90;;;;;;5113749;28;20658;-59
2021/12/28 12:18:30;;;;;;;3.30;2.10;;;10.60;99.90;;;;;;5113464;28;20655;-58
2021/12/28 12:21:01;;;;;;;3.97;2.17;;;10.60;99.90;;;;;;5113401;28;20169;-59
2021/12/28 12:23:28;;;;;;;2.70;0.88;;;10.60;99.90;;;;;;5113828;28;20164;-59
2021/12/28 12:26:01;;;;;;;10.07;2.25;;;10.60;99.90;;;;;;5113388;28;20520;-58
2021/12/28 12:28:33;;;;;;;10.13;2.78;;;10.40;99.90;;;;;;5113062;28;20651;-57
2021/12/28 12:31:01;;;;;;;15.88;3.42;;;10.10;99.90;;;;;;5113375;28;20171;-60
2021/12/28 12:33:41;;;;;;;7.07;1.80;;;10.10;99.90;;;;;;5113619;28;20175;-59
2021/12/28 12:36:22;;;;;;;9.45;2.40;;;10.10;99.90;;;;;;5113373;28;20172;-59
2021/12/28 12:38:49;;;;;;;7.45;2.20;;;10.10;99.90;;;;;;5113078;28;20164;-60
2021/12/28 12:41:19;;;;;;;8.30;2.38;;;10.10;99.90;;;;;;5112411;28;20192;-59
2021/12/28 12:43:51;;;;;;;11.85;3.60;;;10.20;99.90;;;;;;5112937;28;20529;-58
2021/12/28 12:46:31;;;;;;;9.57;2.40;;;10.20;99.90;;;;;;5113072;28;20187;-57
2021/12/28 12:49:05;;;;;;;10.35;2.53;;;10.30;99.90;;;;;;5113313;28;20255;-60
2021/12/28 12:51:33;;;;;;;12.27;3.05;;;10.30;99.90;;;;;;5112858;28;20574;-56